Time;durP1;ratioP1;P1;durP2;ratioP2;P2;SDS_P1;SDS_P2;PMS_P1;PMS_P2;Temp;Humidity;BMP_temperature;BMP_pressure;BME280_temperature;BME280_humidity;BME280_pressure;Samples;Min_cycle;Max_cycle;Signal;HPM_P1;HPM_P2
2023/05/24 00:02:18;;;;;;;4.20;3.75;;;22.30;50.20;;;;;;5067838;28;45333;-72
2023/05/24 00:04:48;;;;;;;4.15;3.78;;;22.30;50.20;;;;;;5068175;28;45204;-72
2023/05/24 00:07:15;;;;;;;4.72;3.60;;;22.30;50.30;;;;;;5068115;28;45293;-72
2023/05/24 00:09:42;;;;;;;3.15;2.95;;;22.30;50.20;;;;;;5067890;28;46292;-72
2023/05/24 00:12:09;;;;;;;4.30;3.42;;;22.20;50.20;;;;;;5068127;28;45212;-72
2023/05/24 00:14:37;;;;;;;3.85;3.55;;;22.20;50.30;;;;;;5067364;28;45143;-72
2023/05/24 00:17:04;;;;;;;3.60;3.33;;;22.20;50.30;;;;;;5068141;28;45386;-72
2023/05/24 00:19:30;;;;;;;3.78;3.47;;;22.20;50.20;;;;;;5067717;28;46349;-72
2023/05/24 00:21:57;;;;;;;3.90;3.50;;;22.20;50.30;;;;;;5067798;28;45426;-72
2023/05/24 00:24:24;;;;;;;4.20;3.80;;;22.10;50.30;;;;;;5068020;28;45208;-72
2023/05/24 00:26:51;;;;;;;5.35;3.67;;;22.10;50.30;;;;;;5068174;28;45139;-72
2023/05/24 00:29:17;;;;;;;4.70;4.00;;;22.10;50.30;;;;;;5067725;28;45265;-72
2023/05/24 00:31:46;;;;;;;4.00;3.60;;;22.10;50.30;;;;;;5067531;28;45269;-72
2023/05/24 00:34:12;;;;;;;4.82;3.90;;;22.10;50.40;;;;;;5067789;28;45280;-72
2023/05/24 00:36:39;;;;;;;3.90;3.47;;;22.10;50.40;;;;;;5067950;28;45178;-72
2023/05/24 00:39:06;;;;;;;3.50;3.20;;;22.10;50.30;;;;;;5067772;28;46406;-72
2023/05/24 00:41:33;;;;;;;3.33;3.03;;;22.10;50.50;;;;;;5067408;28;45253;-72
2023/05/24 00:44:00;;;;;;;3.35;3.05;;;22.10;51.10;;;;;;5067582;28;45363;-72
2023/05/24 00:46:27;;;;;;;3.70;3.40;;;22.00;50.40;;;;;;5067664;28;45340;-72
2023/05/24 00:48:56;;;;;;;3.42;3.10;;;22.00;50.40;;;;;;5067308;28;46414;-72
2023/05/24 00:51:22;;;;;;;4.28;3.35;;;22.00;50.40;;;;;;5067611;28;45286;-72
2023/05/24 00:53:49;;;;;;;4.72;3.72;;;22.00;50.50;;;;;;5067413;28;45209;-72
2023/05/24 00:56:16;;;;;;;3.47;3.17;;;22.00;50.50;;;;;;5066922;28;45408;-72
2023/05/24 00:58:43;;;;;;;4.30;3.60;;;22.00;50.50;;;;;;5066603;27;45605;-72
2023/05/24 01:01:10;;;;;;;4.13;3.60;;;22.00;50.50;;;;;;5066918;28;45137;-72
2023/05/24 01:03:38;;;;;;;3.78;3.42;;;21.90;50.50;;;;;;5067375;28;45490;-71
2023/05/24 01:06:07;;;;;;;4.32;3.70;;;21.90;50.50;;;;;;5067232;28;45197;-72
2023/05/24 01:08:54;;;;;;;3.42;3.13;;;21.90;50.50;;;;;;5067095;28;47639;-72
2023/05/24 01:11:26;;;;;;;3.35;2.90;;;21.90;50.50;;;;;;5067154;28;45248;-71
2023/05/24 01:13:58;;;;;;;4.18;3.45;;;21.90;50.50;;;;;;5067050;28;45361;-71
2023/05/24 01:16:25;;;;;;;3.40;3.10;;;21.90;50.50;;;;;;5067259;28;45217;-71
2023/05/24 01:18:54;;;;;;;3.40;3.10;;;21.80;50.50;;;;;;5066794;28;46883;-72
2023/05/24 01:21:33;;;;;;;4.85;3.17;;;21.80;50.50;;;;;;5066901;28;45202;-71
2023/05/24 01:24:04;;;;;;;3.45;3.10;;;21.80;50.60;;;;;;5067037;28;45236;-71
2023/05/24 01:26:35;;;;;;;4.43;3.10;;;21.80;50.50;;;;;;5067070;28;45257;-71
2023/05/24 01:29:03;;;;;;;3.45;3.13;;;21.80;50.60;;;;;;5066564;28;46418;-71
2023/05/24 01:31:30;;;;;;;3.20;2.90;;;21.80;50.60;;;;;;5066687;28;45303;-71
2023/05/24 01:33:57;;;;;;;3.70;3.40;;;21.70;50.60;;;;;;5066876;28;45220;-71
2023/05/24 01:36:27;;;;;;;3.80;3.33;;;21.70;50.60;;;;;;5067029;28;45390;-72
2023/05/24 01:38:54;;;;;;;3.10;2.85;;;21.70;50.60;;;;;;5066403;28;46713;-71
2023/05/24 01:41:32;;;;;;;3.67;3.08;;;21.70;50.60;;;;;;5066573;28;45272;-72
2023/05/24 01:44:04;;;;;;;3.60;3.30;;;21.70;50.60;;;;;;5067177;28;45217;-71
2023/05/24 01:46:35;;;;;;;3.60;3.25;;;21.70;50.70;;;;;;5066890;28;45511;-71
2023/05/24 01:49:07;;;;;;;3.40;2.88;;;21.70;50.70;;;;;;5066368;28;45424;-71
2023/05/24 01:51:37;;;;;;;2.88;2.65;;;21.70;50.60;;;;;;5063905;28;45228;-71
2023/05/24 01:54:04;;;;;;;3.60;3.10;;;21.60;50.70;;;;;;5066463;28;45280;-71
2023/05/24 01:56:31;;;;;;;3.30;3.00;;;21.60;50.60;;;;;;5066876;28;45258;-71
2023/05/24 01:58:58;;;;;;;3.60;3.30;;;21.60;50.70;;;;;;5066298;28;46628;-71
2023/05/24 02:01:27;;;;;;;3.60;3.25;;;21.60;50.70;;;;;;5066004;28;45249;-71
2023/05/24 02:03:53;;;;;;;2.92;2.72;;;21.60;50.80;;;;;;5066291;28;45268;-71
2023/05/24 02:06:20;;;;;;;3.13;2.83;;;21.60;50.70;;;;;;5066083;28;45474;-71
2023/05/24 02:08:47;;;;;;;3.63;3.15;;;21.60;50.80;;;;;;5067663;28;46447;-71
2023/05/24 02:11:14;;;;;;;3.20;2.90;;;21.60;50.70;;;;;;5069746;28;45190;-71
2023/05/24 02:13:41;;;;;;;3.40;3.10;;;21.60;50.80;;;;;;5069920;28;45436;-71
2023/05/24 02:16:09;;;;;;;2.85;2.65;;;21.50;50.70;;;;;;5069938;28;45420;-71
2023/05/24 02:18:37;;;;;;;3.83;3.30;;;21.50;50.80;;;;;;5069629;28;45306;-71
2023/05/24 02:21:04;;;;;;;3.47;3.17;;;21.50;50.70;;;;;;5069729;28;45138;-71
2023/05/24 02:23:31;;;;;;;2.80;2.60;;;21.50;50.70;;;;;;5069916;28;45413;-71
2023/05/24 02:25:58;;;;;;;3.70;2.85;;;21.50;50.80;;;;;;5069807;28;45435;-71
2023/05/24 02:28:24;;;;;;;3.25;3.03;;;21.50;50.70;;;;;;5069539;28;47584;-71
2023/05/24 02:30:51;;;;;;;3.20;2.80;;;21.50;50.70;;;;;;5069510;28;45157;-71
2023/05/24 02:33:18;;;;;;;3.22;2.75;;;21.50;50.80;;;;;;5069517;28;45174;-71
2023/05/24 02:35:46;;;;;;;3.55;2.92;;;21.40;50.70;;;;;;5069686;28;45396;-71
2023/05/24 02:38:13;;;;;;;2.78;2.58;;;21.40;50.80;;;;;;5069405;28;47356;-71
2023/05/24 02:40:40;;;;;;;3.35;3.00;;;21.40;50.80;;;;;;5069187;28;45245;-71
2023/05/24 02:43:08;;;;;;;3.10;2.80;;;21.40;50.80;;;;;;5069489;28;45224;-71
2023/05/24 02:45:35;;;;;;;3.70;2.97;;;21.40;50.80;;;;;;5069852;28;45305;-71
2023/05/24 02:48:02;;;;;;;4.15;2.88;;;21.40;50.70;;;;;;5068983;28;46365;-71
2023/05/24 02:50:29;;;;;;;2.90;2.70;;;21.40;50.90;;;;;;5068564;28;45284;-71
2023/05/24 02:52:57;;;;;;;3.42;2.97;;;21.40;50.80;;;;;;5069056;28;45339;-71
2023/05/24 02:55:23;;;;;;;3.75;2.50;;;21.30;50.80;;;;;;5069379;28;45372;-71
2023/05/24 02:57:51;;;;;;;2.80;2.60;;;21.30;50.80;;;;;;5068896;28;45598;-71
2023/05/24 03:00:19;;;;;;;3.17;2.88;;;21.30;50.90;;;;;;5069050;28;45454;-71
2023/05/24 03:02:49;;;;;;;4.72;3.00;;;21.30;50.90;;;;;;5068181;28;45377;-71
2023/05/24 03:05:16;;;;;;;2.80;2.60;;;21.30;50.80;;;;;;5068479;28;45119;-71
2023/05/24 03:07:43;;;;;;;3.40;2.75;;;21.30;50.80;;;;;;5067631;28;45476;-71
2023/05/24 03:10:11;;;;;;;2.75;2.45;;;21.30;50.90;;;;;;5067898;28;45205;-71
2023/05/24 03:12:38;;;;;;;2.72;2.40;;;21.20;50.80;;;;;;5067893;28;45275;-71
2023/05/24 03:15:06;;;;;;;3.20;2.90;;;21.20;50.90;;;;;;5068275;28;45320;-71
2023/05/24 03:17:32;;;;;;;2.80;2.55;;;21.20;50.90;;;;;;5067770;28;45369;-71
2023/05/24 03:20:00;;;;;;;4.13;2.95;;;21.20;50.90;;;;;;5067222;28;45354;-71
2023/05/24 03:22:26;;;;;;;3.22;2.90;;;21.20;50.90;;;;;;5067753;28;45313;-72
2023/05/24 03:24:53;;;;;;;2.70;2.50;;;21.20;51.00;;;;;;5067961;28;45291;-71
2023/05/24 03:27:21;;;;;;;3.55;2.83;;;21.20;51.00;;;;;;5067395;28;46408;-72
2023/05/24 03:29:48;;;;;;;2.63;2.42;;;21.10;51.00;;;;;;5067508;28;45244;-71
2023/05/24 03:32:15;;;;;;;2.70;2.50;;;21.10;51.00;;;;;;5067580;28;45407;-72
2023/05/24 03:34:42;;;;;;;2.78;2.58;;;21.10;51.00;;;;;;5067653;28;45275;-72
2023/05/24 03:37:09;;;;;;;2.88;2.53;;;21.10;51.00;;;;;;5066584;28;46374;-72
2023/05/24 03:39:35;;;;;;;3.15;2.80;;;21.10;51.00;;;;;;5067355;28;45158;-72
2023/05/24 03:42:02;;;;;;;2.80;2.60;;;21.10;51.00;;;;;;5067365;28;45300;-72
2023/05/24 03:44:30;;;;;;;2.63;2.40;;;21.10;51.00;;;;;;5067490;28;45486;-72
2023/05/24 03:46:57;;;;;;;2.55;2.35;;;21.00;51.00;;;;;;5066927;28;46418;-72
2023/05/24 03:49:24;;;;;;;3.42;2.75;;;21.00;51.10;;;;;;5067215;28;45194;-72
2023/05/24 03:51:51;;;;;;;3.05;2.47;;;21.00;51.00;;;;;;5067434;28;45241;-72
2023/05/24 03:54:18;;;;;;;2.90;2.58;;;21.00;51.10;;;;;;5067350;28;45434;-71
2023/05/24 03:56:45;;;;;;;3.50;2.55;;;21.00;51.10;;;;;;5067045;28;45529;-72
2023/05/24 03:59:12;;;;;;;3.05;2.38;;;21.00;51.10;;;;;;5066843;28;45429;-72
2023/05/24 04:01:40;;;;;;;3.97;2.63;;;20.90;51.10;;;;;;5026146;28;1162573;-72
2023/05/24 04:04:07;;;;;;;2.75;2.55;;;20.90;51.10;;;;;;5068372;28;45402;-72
2023/05/24 04:06:35;;;;;;;2.80;2.60;;;20.90;51.10;;;;;;5067806;28;45418;-72
2023/05/24 04:09:04;;;;;;;2.50;2.17;;;20.90;51.20;;;;;;5068054;28;45300;-72
2023/05/24 04:11:31;;;;;;;2.50;2.25;;;20.90;51.10;;;;;;5068246;28;45235;-72
2023/05/24 04:13:59;;;;;;;2.78;2.33;;;20.90;51.20;;;;;;5068265;28;45303;-72
2023/05/24 04:16:26;;;;;;;3.80;2.63;;;20.90;51.20;;;;;;5067776;28;45419;-72
2023/05/24 04:18:54;;;;;;;3.28;2.60;;;20.90;51.20;;;;;;5067788;28;45284;-71
2023/05/24 04:21:21;;;;;;;2.67;2.45;;;20.90;51.20;;;;;;5067415;28;45193;-71
2023/05/24 04:23:48;;;;;;;2.80;2.60;;;20.80;51.20;;;;;;5068022;28;45372;-72
2023/05/24 04:26:14;;;;;;;3.25;2.47;;;20.80;51.20;;;;;;5067538;28;45291;-71
2023/05/24 04:28:41;;;;;;;2.60;2.20;;;20.80;51.20;;;;;;5067547;28;45265;-72
2023/05/24 04:31:09;;;;;;;2.75;2.28;;;20.80;51.20;;;;;;5066820;28;45154;-72
2023/05/24 04:33:35;;;;;;;3.10;2.47;;;20.80;51.20;;;;;;5067785;28;45190;-72
2023/05/24 04:36:04;;;;;;;2.38;2.17;;;20.80;51.20;;;;;;5067268;28;46502;-71
2023/05/24 04:38:33;;;;;;;2.20;2.00;;;20.80;51.20;;;;;;5067531;28;45418;-71
2023/05/24 04:41:00;;;;;;;2.35;2.15;;;20.80;51.20;;;;;;5066804;28;45320;-72
2023/05/24 04:43:26;;;;;;;2.38;2.17;;;20.80;51.20;;;;;;5067017;28;45387;-72
2023/05/24 04:45:53;;;;;;;2.72;2.42;;;20.80;51.30;;;;;;5066734;28;46434;-71
2023/05/24 04:48:22;;;;;;;2.30;2.10;;;20.70;51.20;;;;;;5066571;28;45302;-72
2023/05/24 04:50:50;;;;;;;3.10;2.42;;;20.70;51.20;;;;;;5066775;28;45246;-71
2023/05/24 04:53:18;;;;;;;2.60;2.38;;;20.70;51.20;;;;;;5066987;28;45463;-72
2023/05/24 04:55:45;;;;;;;2.47;2.22;;;20.70;51.20;;;;;;5066424;28;45425;-72
2023/05/24 04:58:12;;;;;;;2.50;2.30;;;20.70;51.30;;;;;;5066433;28;45360;-71
2023/05/24 05:00:39;;;;;;;2.67;2.25;;;20.70;51.20;;;;;;5066652;28;45273;-71
2023/05/24 05:03:06;;;;;;;2.60;2.22;;;20.70;51.20;;;;;;5066487;28;45231;-71
2023/05/24 05:05:33;;;;;;;2.60;2.40;;;20.70;51.20;;;;;;5066615;28;45364;-72
2023/05/24 05:08:00;;;;;;;2.35;2.10;;;20.70;51.30;;;;;;5066211;28;45457;-72
2023/05/24 05:10:28;;;;;;;2.45;2.25;;;20.70;51.20;;;;;;5066507;28;45455;-71
2023/05/24 05:12:55;;;;;;;2.38;2.17;;;20.70;51.20;;;;;;5066490;28;45197;-72
2023/05/24 05:15:22;;;;;;;2.30;2.10;;;20.70;51.20;;;;;;5066171;28;46260;-72
2023/05/24 05:17:49;;;;;;;2.42;2.22;;;20.70;51.20;;;;;;5066278;28;45354;-72
2023/05/24 05:20:16;;;;;;;2.80;2.60;;;20.70;51.20;;;;;;5066406;28;45244;-72
2023/05/24 05:22:46;;;;;;;2.60;2.40;;;20.70;51.20;;;;;;5066542;28;45208;-72
2023/05/24 05:25:13;;;;;;;2.30;2.10;;;20.70;51.20;;;;;;5065972;28;45634;-72
2023/05/24 05:27:41;;;;;;;2.28;2.05;;;20.70;51.20;;;;;;5065904;28;45350;-72
2023/05/24 05:30:08;;;;;;;3.60;2.40;;;20.70;51.20;;;;;;5066121;28;45380;-72
2023/05/24 05:32:35;;;;;;;3.08;2.10;;;20.70;51.20;;;;;;5066136;28;45446;-72
2023/05/24 05:35:02;;;;;;;2.97;2.28;;;20.70;51.30;;;;;;5065902;28;46254;-72
2023/05/24 05:37:30;;;;;;;3.03;2.00;;;20.70;51.10;;;;;;5065848;28;45430;-72
2023/05/24 05:39:56;;;;;;;2.35;2.10;;;20.70;51.10;;;;;;5065968;28;45269;-72
2023/05/24 05:42:23;;;;;;;2.95;2.42;;;20.70;51.10;;;;;;5065905;28;45232;-72
2023/05/24 05:44:52;;;;;;;2.30;2.03;;;20.70;51.10;;;;;;5065932;28;47658;-72
2023/05/24 05:47:19;;;;;;;2.70;2.20;;;20.70;51.10;;;;;;5065801;28;45395;-72
2023/05/24 05:49:45;;;;;;;2.33;2.13;;;20.70;51.10;;;;;;5065886;28;45346;-72
2023/05/24 05:52:12;;;;;;;2.35;2.10;;;20.70;51.10;;;;;;5065802;28;45328;-72
2023/05/24 05:54:39;;;;;;;3.60;2.10;;;20.70;51.10;;;;;;5065505;28;46398;-72
2023/05/24 05:57:07;;;;;;;2.42;2.00;;;20.70;51.10;;;;;;5065569;28;45286;-72
2023/05/24 05:59:34;;;;;;;1.98;1.85;;;20.70;51.10;;;;;;5065563;28;45310;-72
2023/05/24 06:02:03;;;;;;;2.40;2.20;;;20.70;51.10;;;;;;5065571;28;45610;-72
2023/05/24 06:04:30;;;;;;;2.55;2.10;;;20.70;51.10;;;;;;5065358;28;45238;-73
2023/05/24 06:06:56;;;;;;;2.30;2.05;;;20.70;51.10;;;;;;5065297;28;45210;-72
2023/05/24 06:09:23;;;;;;;2.75;1.90;;;20.70;51.10;;;;;;5065445;28;45276;-72
2023/05/24 06:11:50;;;;;;;3.55;2.15;;;20.70;51.10;;;;;;5065595;28;45359;-72
2023/05/24 06:14:18;;;;;;;2.78;1.90;;;20.70;51.10;;;;;;5065313;28;45462;-71
2023/05/24 06:16:46;;;;;;;2.22;2.00;;;20.70;51.10;;;;;;5065345;28;45169;-71
2023/05/24 06:19:15;;;;;;;3.78;2.17;;;20.70;51.10;;;;;;5065435;28;45246;-72
2023/05/24 06:21:46;;;;;;;2.40;2.20;;;20.70;51.10;;;;;;5065637;28;45281;-72
2023/05/24 06:24:13;;;;;;;2.97;1.83;;;20.70;51.10;;;;;;5065154;28;46984;-72
2023/05/24 06:26:40;;;;;;;2.47;2.10;;;20.70;51.10;;;;;;5065060;27;45246;-71
2023/05/24 06:29:08;;;;;;;4.03;2.30;;;20.70;51.10;;;;;;5065123;28;45357;-72
2023/05/24 06:31:35;;;;;;;2.15;1.88;;;20.70;51.20;;;;;;5065657;28;45284;-71
2023/05/24 06:34:02;;;;;;;2.63;2.10;;;20.70;51.20;;;;;;5064995;28;46756;-72
2023/05/24 06:36:32;;;;;;;2.33;2.03;;;20.70;51.20;;;;;;5065208;28;45591;-72
2023/05/24 06:39:00;;;;;;;2.85;2.15;;;20.70;51.20;;;;;;5065344;28;45196;-72
2023/05/24 06:41:27;;;;;;;2.80;2.03;;;20.70;51.20;;;;;;5065378;28;45212;-71
2023/05/24 06:43:53;;;;;;;2.10;1.95;;;20.70;51.20;;;;;;5064969;28;45736;-72
2023/05/24 06:46:20;;;;;;;3.40;2.28;;;20.70;51.30;;;;;;5065020;28;45426;-71
2023/05/24 06:48:47;;;;;;;4.45;2.08;;;20.70;51.20;;;;;;5064981;28;45305;-72
2023/05/24 06:51:14;;;;;;;3.05;2.10;;;20.70;51.10;;;;;;5065142;28;45475;-72
2023/05/24 06:53:42;;;;;;;2.85;2.05;;;20.70;50.80;;;;;;5065088;28;45535;-72
2023/05/24 06:56:09;;;;;;;4.05;2.35;;;20.70;50.60;;;;;;5068447;28;45333;-72
2023/05/24 06:58:36;;;;;;;5.07;2.50;;;20.70;50.40;;;;;;5068427;28;45398;-72
2023/05/24 07:01:03;;;;;;;7.70;2.35;;;20.70;50.20;;;;;;5068439;28;45301;-72
2023/05/24 07:03:30;;;;;;;5.28;3.05;;;20.70;50.10;;;;;;5068165;28;46611;-72
2023/05/24 07:05:57;;;;;;;5.03;2.55;;;20.70;50.10;;;;;;5068231;28;45274;-72
2023/05/24 07:08:25;;;;;;;5.40;2.38;;;20.70;50.10;;;;;;5068380;28;45260;-72
2023/05/24 07:10:53;;;;;;;7.35;2.65;;;20.70;50.00;;;;;;5068512;28;45225;-73
2023/05/24 07:13:20;;;;;;;6.82;2.95;;;20.60;49.80;;;;;;5068127;28;45316;-72
2023/05/24 07:15:46;;;;;;;8.32;3.33;;;20.60;49.80;;;;;;5067989;28;45191;-72
2023/05/24 07:18:13;;;;;;;6.20;2.88;;;20.60;49.90;;;;;;5068167;28;45245;-73
2023/05/24 07:20:40;;;;;;;6.35;2.78;;;20.60;48.70;;;;;;5068218;28;45443;-73
2023/05/24 07:23:07;;;;;;;4.13;2.70;;;20.40;48.70;;;;;;5067818;28;46662;-72
2023/05/24 07:25:34;;;;;;;5.65;2.67;;;20.20;49.10;;;;;;5067820;28;45285;-73
2023/05/24 07:28:02;;;;;;;4.65;3.05;;;20.00;48.90;;;;;;5068010;28;45240;-73
2023/05/24 07:30:29;;;;;;;6.45;2.95;;;19.80;49.30;;;;;;5068257;28;45261;-73
2023/05/24 07:32:56;;;;;;;6.70;3.15;;;19.60;49.40;;;;;;5067648;28;46846;-73
2023/05/24 07:35:23;;;;;;;5.65;2.75;;;19.50;49.70;;;;;;5067768;28;45313;-73
2023/05/24 07:37:49;;;;;;;6.80;2.83;;;19.40;50.00;;;;;;5067791;28;45158;-73
2023/05/24 07:40:16;;;;;;;7.70;2.70;;;19.20;50.20;;;;;;5067896;28;45465;-73
2023/05/24 07:42:43;;;;;;;5.22;2.58;;;19.10;50.60;;;;;;5067585;28;45240;-72
2023/05/24 07:45:12;;;;;;;7.05;2.88;;;19.00;50.70;;;;;;5067688;28;45418;-73
2023/05/24 07:47:39;;;;;;;7.60;2.55;;;18.90;50.80;;;;;;5067725;28;45284;-72
2023/05/24 07:50:07;;;;;;;7.38;3.08;;;18.80;51.00;;;;;;5067868;28;45361;-73
2023/05/24 07:52:34;;;;;;;6.43;2.67;;;18.70;51.20;;;;;;5067496;28;46787;-73
2023/05/24 07:55:00;;;;;;;7.07;2.95;;;18.70;51.20;;;;;;5067461;28;45299;-72
2023/05/24 07:57:28;;;;;;;9.65;2.95;;;18.70;51.30;;;;;;5067440;28;45455;-72
2023/05/24 07:59:54;;;;;;;4.85;2.65;;;18.60;51.30;;;;;;5067638;28;45195;-71
2023/05/24 08:02:23;;;;;;;5.18;2.35;;;18.70;51.50;;;;;;5067066;28;46687;-71
2023/05/24 08:04:50;;;;;;;4.90;2.55;;;18.60;51.40;;;;;;5066869;28;45303;-72
2023/05/24 08:07:17;;;;;;;4.03;2.50;;;18.60;51.40;;;;;;5066587;28;45238;-72
2023/05/24 08:09:44;;;;;;;6.50;2.45;;;18.50;51.50;;;;;;5067552;28;45413;-72
2023/05/24 08:12:11;;;;;;;5.50;2.42;;;18.50;51.70;;;;;;5067147;28;46409;-72
2023/05/24 08:14:38;;;;;;;9.07;2.80;;;18.50;51.80;;;;;;5067054;28;45377;-72
2023/05/24 08:17:05;;;;;;;7.75;2.50;;;18.50;51.80;;;;;;5067399;28;45349;-72
2023/05/24 08:19:34;;;;;;;6.18;2.13;;;18.60;51.90;;;;;;5067442;28;45371;-74
2023/05/24 08:22:03;;;;;;;5.55;2.33;;;18.60;51.90;;;;;;5066898;28;46616;-73
2023/05/24 08:24:30;;;;;;;7.80;2.22;;;18.60;51.80;;;;;;5067049;28;45403;-72
2023/05/24 08:26:57;;;;;;;4.97;2.15;;;18.60;51.90;;;;;;5066974;28;45246;-73
2023/05/24 08:29:24;;;;;;;6.88;2.63;;;18.70;51.90;;;;;;5067178;28;45381;-73
2023/05/24 08:31:51;;;;;;;4.68;2.40;;;18.60;51.60;;;;;;5066736;28;46427;-73
2023/05/24 08:34:18;;;;;;;6.57;2.38;;;18.60;51.80;;;;;;5066926;28;45280;-72
2023/05/24 08:36:46;;;;;;;4.63;2.28;;;18.60;51.90;;;;;;5066953;28;45379;-72
2023/05/24 08:39:13;;;;;;;9.05;3.03;;;18.60;52.50;;;;;;5066920;28;45448;-72
2023/05/24 08:41:41;;;;;;;6.22;2.65;;;18.50;52.00;;;;;;5066411;28;45476;-72
2023/05/24 08:44:07;;;;;;;7.80;2.30;;;18.50;52.10;;;;;;5066582;28;45130;-72
2023/05/24 08:46:35;;;;;;;8.07;2.80;;;18.50;52.20;;;;;;5066768;28;45213;-73
2023/05/24 08:49:02;;;;;;;8.05;2.65;;;18.40;52.20;;;;;;5066701;28;45443;-71
2023/05/24 08:51:29;;;;;;;4.30;2.40;;;18.50;52.50;;;;;;5066500;28;46648;-72
2023/05/24 08:53:58;;;;;;;5.60;2.38;;;18.60;52.40;;;;;;5066819;28;45260;-73
2023/05/24 08:56:25;;;;;;;7.95;2.20;;;18.70;52.20;;;;;;5066622;28;45316;-72
2023/05/24 08:58:52;;;;;;;3.83;1.98;;;18.80;52.00;;;;;;5066869;28;45396;-72
2023/05/24 09:01:19;;;;;;;4.50;2.13;;;19.00;51.80;;;;;;5066134;28;46354;-71
2023/05/24 09:03:46;;;;;;;6.20;2.35;;;19.10;51.60;;;;;;5066494;28;45264;-72
2023/05/24 09:06:13;;;;;;;5.97;2.33;;;19.20;51.40;;;;;;5066535;28;45304;-71
2023/05/24 09:08:40;;;;;;;4.32;2.10;;;19.30;51.30;;;;;;5066761;28;45452;-71
2023/05/24 09:11:08;;;;;;;5.47;2.70;;;19.40;51.10;;;;;;5066175;28;49073;-72
2023/05/24 09:13:35;;;;;;;3.50;2.30;;;19.40;51.00;;;;;;5066298;28;45382;-72
2023/05/24 09:16:02;;;;;;;4.85;2.28;;;19.50;51.00;;;;;;5066457;28;45233;-72
2023/05/24 09:18:29;;;;;;;8.00;2.83;;;19.60;50.90;;;;;;5065994;28;45180;-73
2023/05/24 09:20:56;;;;;;;6.78;2.35;;;19.70;50.80;;;;;;5066018;28;46156;-72
2023/05/24 09:23:23;;;;;;;4.60;2.47;;;19.60;50.60;;;;;;5066086;28;45345;-72
2023/05/24 09:25:50;;;;;;;4.45;2.33;;;19.70;50.60;;;;;;5066254;28;45325;-72
2023/05/24 09:28:19;;;;;;;5.20;2.90;;;19.80;50.50;;;;;;5066323;28;45320;-73
2023/05/24 09:31:00;;;;;;;5.18;2.50;;;19.80;50.50;;;;;;5065944;28;45443;-72
2023/05/24 09:33:29;;;;;;;5.15;2.40;;;19.80;50.40;;;;;;5065981;28;45250;-73
2023/05/24 09:35:57;;;;;;;3.92;2.25;;;19.90;50.40;;;;;;5066309;28;45241;-72
2023/05/24 09:38:25;;;;;;;5.63;2.92;;;19.90;50.30;;;;;;5066183;28;45236;-72
2023/05/24 09:40:59;;;;;;;3.88;2.60;;;19.90;50.30;;;;;;5065697;28;46381;-73
2023/05/24 09:43:28;;;;;;;5.88;2.70;;;20.00;50.30;;;;;;5065928;28;45288;-73
2023/05/24 09:45:56;;;;;;;5.25;2.47;;;20.00;50.20;;;;;;5065986;28;45285;-73
2023/05/24 09:48:23;;;;;;;4.53;2.45;;;20.00;50.20;;;;;;5066035;28;45555;-73
2023/05/24 09:50:58;;;;;;;4.50;2.17;;;20.00;50.10;;;;;;5065743;28;46555;-72
2023/05/24 09:53:25;;;;;;;5.70;2.20;;;20.10;50.10;;;;;;5065774;28;45284;-72
2023/05/24 09:55:52;;;;;;;3.63;2.17;;;20.10;50.10;;;;;;5065922;28;45247;-73
2023/05/24 09:58:19;;;;;;;5.60;2.30;;;20.10;50.10;;;;;;5066044;28;45511;-72
2023/05/24 10:00:47;;;;;;;5.38;2.50;;;20.10;50.10;;;;;;5065544;28;46686;-72
2023/05/24 10:03:14;;;;;;;4.47;2.47;;;20.20;50.10;;;;;;5065174;28;45279;-73
2023/05/24 10:05:42;;;;;;;2.72;2.05;;;20.20;50.10;;;;;;5057553;28;45559;-71
2023/05/24 10:08:09;;;;;;;5.22;2.38;;;20.20;50.10;;;;;;5045341;28;45200;-72
2023/05/24 10:10:36;;;;;;;5.43;2.30;;;20.20;50.00;;;;;;5055592;28;45427;-72
2023/05/24 10:13:03;;;;;;;4.65;2.40;;;20.20;50.00;;;;;;5065059;28;45785;-71
2023/05/24 10:15:30;;;;;;;3.60;2.55;;;20.20;50.00;;;;;;5065392;28;45277;-71
2023/05/24 10:17:58;;;;;;;3.88;2.30;;;20.30;50.00;;;;;;5065930;28;45229;-71
2023/05/24 10:20:25;;;;;;;3.90;2.00;;;20.30;50.00;;;;;;5065175;28;46486;-71
2023/05/24 10:22:53;;;;;;;3.80;2.08;;;20.30;50.00;;;;;;5064969;28;45427;-72
2023/05/24 10:25:21;;;;;;;7.00;2.53;;;20.30;50.00;;;;;;5065264;28;45300;-72
2023/05/24 10:27:49;;;;;;;6.03;2.38;;;20.40;50.00;;;;;;5065433;28;45543;-72
2023/05/24 10:30:18;;;;;;;4.65;2.50;;;20.40;50.00;;;;;;5078604;28;48466;-71
2023/05/24 10:32:45;;;;;;;6.50;2.20;;;20.40;50.00;;;;;;5072175;27;45396;-71
2023/05/24 10:35:14;;;;;;;2.50;2.00;;;20.50;50.10;;;;;;5051933;28;45419;-70
2023/05/24 10:37:41;;;;;;;6.28;2.83;;;20.50;50.00;;;;;;5069980;28;45424;-70
2023/05/24 10:40:16;;;;;;;2.92;2.10;;;20.50;50.00;;;;;;5068019;28;46683;-72
2023/05/24 10:42:43;;;;;;;3.72;2.20;;;20.50;50.00;;;;;;5067257;28;45480;-71
2023/05/24 10:45:34;;;;;;;3.45;2.15;;;20.50;50.00;;;;;;5069271;28;45231;-71
2023/05/24 10:48:31;;;;;;;3.85;1.98;;;20.60;50.10;;;;;;5077171;28;45247;-69
2023/05/24 10:51:00;;;;;;;6.07;2.47;;;20.60;50.10;;;;;;5079581;28;45516;-70
2023/05/24 10:53:27;;;;;;;6.07;2.55;;;20.70;50.10;;;;;;5065217;28;45357;-71
2023/05/24 10:55:55;;;;;;;5.45;2.33;;;20.70;50.10;;;;;;5068228;28;45313;-70
2023/05/24 10:58:23;;;;;;;4.47;2.13;;;20.70;50.10;;;;;;5068673;28;45439;-70
2023/05/24 11:00:52;;;;;;;9.73;2.42;;;20.80;50.10;;;;;;5067990;28;46384;-68
2023/05/24 11:03:22;;;;;;;3.13;2.25;;;20.80;50.10;;;;;;5067637;28;45308;-71
2023/05/24 11:05:51;;;;;;;5.07;2.28;;;20.80;50.10;;;;;;5068481;28;45407;-67
2023/05/24 11:08:23;;;;;;;5.25;2.72;;;20.80;50.10;;;;;;5078422;27;45497;-67
2023/05/24 11:10:50;;;;;;;3.67;2.13;;;20.80;50.00;;;;;;5079106;27;46674;-67
2023/05/24 11:13:18;;;;;;;4.57;2.10;;;20.80;50.10;;;;;;5079012;27;45465;-68
2023/05/24 11:15:50;;;;;;;8.05;2.55;;;20.90;50.10;;;;;;5061908;27;45586;-69
2023/05/24 11:18:19;;;;;;;6.15;2.30;;;20.90;50.10;;;;;;5052519;28;45297;-67
2023/05/24 11:20:46;;;;;;;4.88;2.40;;;20.90;50.00;;;;;;5070401;27;48453;-70
2023/05/24 11:23:14;;;;;;;4.88;2.30;;;20.90;50.00;;;;;;5058678;28;45360;-68
2023/05/24 11:25:42;;;;;;;6.97;2.40;;;20.90;50.00;;;;;;5073731;27;45449;-68
2023/05/24 11:28:09;;;;;;;5.68;3.13;;;20.90;50.00;;;;;;5068516;27;45502;-68
2023/05/24 11:30:39;;;;;;;5.35;2.65;;;20.90;49.90;;;;;;5066759;27;46828;-69
2023/05/24 11:33:13;;;;;;;7.45;2.92;;;21.00;49.80;;;;;;5064323;28;45353;-68
2023/05/24 11:35:40;;;;;;;6.90;2.63;;;21.00;49.90;;;;;;5058676;28;45454;-67
2023/05/24 11:38:11;;;;;;;7.35;2.20;;;21.00;49.80;;;;;;5060907;28;45207;-68
2023/05/24 11:40:43;;;;;;;7.95;2.63;;;21.00;49.80;;;;;;5069590;27;45664;-70
2023/05/24 11:43:13;;;;;;;9.00;2.70;;;21.00;50.50;;;;;;5057620;28;45208;-69
2023/05/24 11:45:41;;;;;;;5.80;2.15;;;21.00;50.00;;;;;;5074256;28;45314;-68
2023/05/24 11:48:08;;;;;;;11.02;3.03;;;21.00;49.90;;;;;;5067519;28;45361;-69
2023/05/24 11:50:39;;;;;;;9.25;2.90;;;21.10;49.90;;;;;;5066107;28;45379;-69
2023/05/24 11:53:05;;;;;;;10.10;2.97;;;21.10;49.90;;;;;;5061324;28;45459;-68
2023/05/24 11:55:32;;;;;;;4.75;2.10;;;21.10;49.80;;;;;;5067232;27;45290;-68
2023/05/24 11:57:59;;;;;;;9.43;3.40;;;21.20;49.80;;;;;;5068088;28;45407;-69
2023/05/24 12:00:27;;;;;;;6.63;2.72;;;21.20;49.80;;;;;;5064480;28;47896;-69
2023/05/24 12:03:00;;;;;;;8.38;2.75;;;21.20;49.70;;;;;;5066878;28;45250;-68
2023/05/24 12:05:30;;;;;;;6.00;2.47;;;21.20;49.70;;;;;;5066666;28;45297;-68
2023/05/24 12:08:04;;;;;;;5.00;2.30;;;21.30;49.70;;;;;;5064814;28;45534;-67
2023/05/24 12:10:32;;;;;;;7.40;2.30;;;21.30;49.60;;;;;;5060479;27;46668;-65
2023/05/24 12:12:59;;;;;;;8.57;2.60;;;21.40;49.60;;;;;;5071490;28;45232;-68
2023/05/24 12:15:27;;;;;;;4.47;2.25;;;21.40;49.50;;;;;;5060416;28;45413;-68
2023/05/24 12:17:54;;;;;;;7.20;2.25;;;21.40;49.40;;;;;;5068006;27;45407;-67
2023/05/24 12:20:22;;;;;;;9.88;3.00;;;21.40;49.40;;;;;;5079976;28;46402;-68
2023/05/24 12:22:50;;;;;;;9.00;2.50;;;21.50;49.40;;;;;;5071642;27;45240;-69
2023/05/24 12:25:19;;;;;;;7.65;2.30;;;21.50;49.40;;;;;;5059915;28;45533;-70
2023/05/24 12:27:47;;;;;;;7.65;2.90;;;21.60;49.30;;;;;;5062779;28;45538;-70
2023/05/24 12:30:19;;;;;;;4.43;2.42;;;21.60;49.20;;;;;;5079420;27;45536;-68
2023/05/24 12:32:47;;;;;;;7.38;2.97;;;21.70;49.20;;;;;;5062178;28;45446;-68
2023/05/24 12:35:15;;;;;;;3.97;2.53;;;21.70;49.20;;;;;;5061708;28;45397;-69
2023/05/24 12:37:42;;;;;;;8.52;3.08;;;21.80;49.30;;;;;;5063403;28;45193;-68
2023/05/24 12:40:16;;;;;;;7.03;2.58;;;21.80;49.20;;;;;;5050262;28;45673;-69
2023/05/24 12:42:44;;;;;;;5.95;2.63;;;21.80;49.20;;;;;;5071064;27;45321;-68
2023/05/24 12:45:11;;;;;;;6.60;2.40;;;21.80;49.30;;;;;;5076528;28;45564;-68
2023/05/24 12:47:38;;;;;;;4.35;2.28;;;21.90;49.30;;;;;;5068107;28;45287;-68
2023/05/24 12:50:07;;;;;;;3.83;2.22;;;21.90;49.20;;;;;;5065223;28;45305;-68